createdAt,value
2017-05-01T00:01:17.002Z,995.11
2017-05-01T00:02:17.609Z,995.12
2017-05-01T00:03:18.218Z,995.13
2017-05-01T00:04:18.828Z,995.13
2017-05-01T00:05:19.419Z,995.18
2017-05-01T00:06:20.030Z,995.12
2017-05-01T00:07:20.640Z,995.08
2017-05-01T00:08:21.245Z,995.05
2017-05-01T00:09:21.857Z,995.09
2017-05-01T00:10:22.471Z,995.09
2017-05-01T00:11:23.126Z,995.09
2017-05-01T00:12:23.729Z,995.16
2017-05-01T00:13:24.325Z,995.09
2017-05-01T00:14:24.927Z,995.22
2017-05-01T00:15:25.539Z,995.17
2017-05-01T00:16:26.150Z,995.14
2017-05-01T00:17:26.759Z,995.16
2017-05-01T00:18:27.358Z,995.19
2017-05-01T00:19:27.960Z,995.22
2017-05-01T00:20:28.562Z,995.28
2017-05-01T00:21:29.176Z,995.26
2017-05-01T00:22:29.769Z,995.25
2017-05-01T00:23:30.371Z,995.14
2017-05-01T00:24:30.985Z,995.25
2017-05-01T00:25:31.601Z,995.32
2017-05-01T00:26:32.260Z,995.28
2017-05-01T00:27:32.869Z,995.28
2017-05-01T00:28:33.463Z,995.26
2017-05-01T00:29:34.073Z,995.19
2017-05-01T00:30:34.685Z,995.30
2017-05-01T00:31:35.331Z,995.29
2017-05-01T00:32:35.933Z,995.29
2017-05-01T00:33:36.534Z,995.29
2017-05-01T00:34:37.145Z,995.27
2017-05-01T00:35:37.761Z,995.29
2017-05-01T00:36:38.369Z,995.26
2017-05-01T00:37:38.978Z,995.26
2017-05-01T00:38:39.580Z,995.27
2017-05-01T00:39:40.189Z,995.24
2017-05-01T00:40:40.801Z,995.23
2017-05-01T00:41:41.414Z,995.25
2017-05-01T00:42:42.023Z,995.26
2017-05-01T00:43:42.619Z,995.27
2017-05-01T00:44:43.227Z,995.27
2017-05-01T00:45:43.828Z,995.28
2017-05-01T00:46:44.433Z,995.21
2017-05-01T00:47:45.034Z,995.28
2017-05-01T00:48:45.632Z,995.25
2017-05-01T00:49:46.244Z,995.28
2017-05-01T00:50:46.840Z,995.27
2017-05-01T00:51:47.445Z,995.26
2017-05-01T00:52:48.046Z,995.27
2017-05-01T00:53:48.659Z,995.27
2017-05-01T00:54:49.274Z,995.30
2017-05-01T00:55:49.885Z,995.27
2017-05-01T00:56:50.491Z,995.28
2017-05-01T00:57:51.101Z,995.31
2017-05-01T00:58:51.733Z,995.33
2017-05-01T00:59:52.339Z,995.34
2017-05-01T01:00:52.955Z,995.34
2017-05-01T01:01:53.566Z,995.29
2017-05-01T01:02:54.172Z,995.31
2017-05-01T01:03:54.833Z,995.31
2017-05-01T01:04:55.451Z,995.27
2017-05-01T01:05:56.049Z,995.28
2017-05-01T01:06:56.706Z,995.33
2017-05-01T01:07:57.315Z,995.33
2017-05-01T01:08:57.920Z,995.36
2017-05-01T01:09:58.520Z,995.30
2017-05-01T01:10:59.158Z,995.34
2017-05-01T01:11:59.752Z,995.35
2017-05-01T01:13:00.362Z,995.36
2017-05-01T01:14:00.977Z,995.38
2017-05-01T01:15:01.585Z,995.37
2017-05-01T01:16:02.183Z,995.40
2017-05-01T01:17:02.797Z,995.38
2017-05-01T01:18:03.413Z,995.39
2017-05-01T01:19:04.025Z,995.38
2017-05-01T01:20:04.643Z,995.41
2017-05-01T01:21:05.242Z,995.41
2017-05-01T01:22:05.851Z,995.46
2017-05-01T01:23:06.455Z,995.45
2017-05-01T01:24:07.061Z,995.45
2017-05-01T01:25:07.673Z,995.45
2017-05-01T01:26:08.269Z,995.47
2017-05-01T01:27:08.871Z,995.44
2017-05-01T01:28:09.478Z,995.43
2017-05-01T01:29:10.075Z,995.46
2017-05-01T01:30:10.680Z,995.46
2017-05-01T01:31:11.290Z,995.48
2017-05-01T01:32:11.895Z,995.50
2017-05-01T01:33:12.504Z,995.49
2017-05-01T01:34:13.116Z,995.52
2017-05-01T01:35:13.726Z,995.46
2017-05-01T01:36:14.319Z,995.49
2017-05-01T01:37:14.926Z,995.48
2017-05-01T01:38:15.536Z,995.46
2017-05-01T01:39:16.133Z,995.50
2017-05-01T01:40:16.740Z,995.49
2017-05-01T01:41:17.338Z,995.55
2017-05-01T01:42:17.936Z,995.56
2017-05-01T01:43:18.538Z,995.52
2017-05-01T01:44:19.131Z,995.59
2017-05-01T01:45:19.745Z,995.60
2017-05-01T01:46:20.356Z,995.59
2017-05-01T01:47:20.967Z,995.64
2017-05-01T01:48:21.572Z,995.64
2017-05-01T01:49:22.184Z,995.68
2017-05-01T01:50:22.787Z,995.66
2017-05-01T01:51:23.397Z,995.64
2017-05-01T01:52:23.994Z,995.64
2017-05-01T01:53:24.601Z,995.68
2017-05-01T01:54:25.208Z,995.69
2017-05-01T01:55:25.803Z,995.77
2017-05-01T01:56:26.415Z,995.71
2017-05-01T01:57:27.021Z,995.70
2017-05-01T01:58:27.621Z,995.72
2017-05-01T01:59:28.228Z,995.73
2017-05-01T02:00:28.832Z,995.79
2017-05-01T02:01:29.439Z,995.78
2017-05-01T02:02:30.053Z,995.77
2017-05-01T02:03:30.667Z,995.75
2017-05-01T02:04:31.279Z,995.72
2017-05-01T02:05:31.885Z,995.75
2017-05-01T02:06:32.495Z,995.73
2017-05-01T02:07:33.092Z,995.71
2017-05-01T02:08:33.699Z,995.79
2017-05-01T02:09:34.310Z,995.77
2017-05-01T02:10:34.911Z,995.76
2017-05-01T02:11:35.526Z,995.78
2017-05-01T02:12:36.134Z,995.78
2017-05-01T02:13:36.729Z,995.79
2017-05-01T02:14:37.335Z,995.77
2017-05-01T02:15:37.931Z,995.80
2017-05-01T02:16:38.535Z,995.78
2017-05-01T02:17:39.134Z,995.80
2017-05-01T02:18:39.747Z,995.80
2017-05-01T02:19:40.342Z,995.80
2017-05-01T02:20:40.942Z,995.82
2017-05-01T02:21:41.546Z,995.79
2017-05-01T02:22:42.206Z,995.82
2017-05-01T02:23:42.818Z,995.81
2017-05-01T02:24:43.422Z,995.87
2017-05-01T02:25:44.028Z,995.83
2017-05-01T02:26:44.639Z,995.87
2017-05-01T02:27:45.247Z,995.86
2017-05-01T02:28:45.852Z,995.89
2017-05-01T02:29:46.447Z,995.83
2017-05-01T02:30:47.059Z,995.84
2017-05-01T02:31:47.669Z,995.81
2017-05-01T02:32:48.332Z,995.76
2017-05-01T02:33:48.935Z,995.81
2017-05-01T02:34:49.551Z,995.86
2017-05-01T02:35:50.155Z,995.88
2017-05-01T02:36:50.752Z,995.91
2017-05-01T02:37:51.348Z,995.94
2017-05-01T02:38:51.946Z,995.96
2017-05-01T02:39:52.544Z,996.00
2017-05-01T02:40:53.157Z,996.01
2017-05-01T02:41:53.766Z,996.03
2017-05-01T02:42:54.365Z,996.01
2017-05-01T02:43:54.966Z,996.06
2017-05-01T02:44:55.569Z,996.05
2017-05-01T02:45:56.167Z,996.00
2017-05-01T02:46:56.762Z,995.99
2017-05-01T02:47:57.425Z,995.96
2017-05-01T02:48:58.032Z,995.94
2017-05-01T02:49:58.637Z,996.02
2017-05-01T02:50:59.232Z,996.04
2017-05-01T02:51:59.830Z,996.06
2017-05-01T02:53:00.437Z,996.10
2017-05-01T02:54:01.046Z,996.08
2017-05-01T02:55:01.653Z,996.10
2017-05-01T02:56:02.247Z,996.12
2017-05-01T02:57:02.846Z,996.15
2017-05-01T02:58:03.453Z,996.16
2017-05-01T02:59:04.057Z,996.17
2017-05-01T03:00:04.652Z,996.17
2017-05-01T03:01:05.257Z,996.15
2017-05-01T03:02:05.872Z,996.21
2017-05-01T03:03:06.467Z,996.21
2017-05-01T03:04:07.073Z,996.26
2017-05-01T03:05:07.691Z,996.26
2017-05-01T03:06:08.308Z,996.32
2017-05-01T03:07:08.923Z,996.28
2017-05-01T03:08:09.530Z,996.29
2017-05-01T03:09:10.139Z,996.33
2017-05-01T03:10:10.747Z,996.35
2017-05-01T03:11:11.345Z,996.34
2017-05-01T03:12:11.940Z,996.35
2017-05-01T03:13:12.542Z,996.33
2017-05-01T03:14:13.152Z,996.33
2017-05-01T03:15:13.747Z,996.33
2017-05-01T03:16:14.349Z,996.32
2017-05-01T03:17:14.955Z,996.30
2017-05-01T03:18:15.564Z,996.32
2017-05-01T03:19:16.167Z,996.34
2017-05-01T03:20:16.774Z,996.34
2017-05-01T03:21:17.381Z,996.40
2017-05-01T03:22:17.987Z,996.40
2017-05-01T03:23:18.598Z,996.46
2017-05-01T03:24:19.199Z,996.48
2017-05-01T03:25:19.809Z,996.50
2017-05-01T03:26:20.407Z,996.51
2017-05-01T03:27:21.015Z,996.50
2017-05-01T03:28:21.622Z,996.54
2017-05-01T03:29:22.228Z,996.54
2017-05-01T03:30:22.835Z,996.56
2017-05-01T03:31:23.449Z,996.57
2017-05-01T03:32:24.054Z,996.54
2017-05-01T03:33:24.717Z,996.50
2017-05-01T03:34:25.330Z,996.51
2017-05-01T03:35:25.943Z,996.51
2017-05-01T03:36:26.554Z,996.52
2017-05-01T03:37:27.169Z,996.55
2017-05-01T03:38:27.765Z,996.57
2017-05-01T03:39:28.375Z,996.61
2017-05-01T03:40:28.981Z,996.64
2017-05-01T03:41:29.589Z,996.71
2017-05-01T03:42:30.193Z,996.73
2017-05-01T03:43:30.850Z,996.74
2017-05-01T03:44:31.463Z,996.78
2017-05-01T03:45:32.072Z,996.86
2017-05-01T03:46:32.682Z,996.90
2017-05-01T03:47:33.277Z,996.94
2017-05-01T03:48:33.936Z,996.93
2017-05-01T03:49:34.542Z,996.94
2017-05-01T03:50:35.154Z,996.94
2017-05-01T03:51:35.759Z,996.95
2017-05-01T03:52:36.372Z,996.98
2017-05-01T03:53:37.037Z,997.03
2017-05-01T03:54:37.643Z,997.06
2017-05-01T03:55:38.253Z,997.08
2017-05-01T03:56:38.847Z,997.10
2017-05-01T03:57:39.453Z,997.16
2017-05-01T03:58:40.061Z,997.18
2017-05-01T03:59:40.662Z,997.24
2017-05-01T04:00:41.263Z,997.26
2017-05-01T04:01:41.858Z,997.27
2017-05-01T04:02:42.467Z,997.30
2017-05-01T04:03:43.074Z,997.37
2017-05-01T04:04:43.670Z,997.32
2017-05-01T04:05:44.265Z,997.38
2017-05-01T04:06:44.860Z,997.40
2017-05-01T04:07:45.458Z,997.41
2017-05-01T04:08:46.053Z,997.42
2017-05-01T04:09:46.661Z,997.43
2017-05-01T04:10:47.262Z,997.51
2017-05-01T04:11:47.868Z,997.52
2017-05-01T04:12:48.477Z,997.56
2017-05-01T04:13:49.090Z,997.63
2017-05-01T04:14:49.701Z,997.65
2017-05-01T04:15:50.305Z,997.65
2017-05-01T04:16:50.914Z,997.66
2017-05-01T04:17:51.523Z,997.70
2017-05-01T04:18:52.136Z,997.73
2017-05-01T04:19:52.751Z,997.76
2017-05-01T04:20:53.355Z,997.78
2017-05-01T04:21:53.963Z,997.82
2017-05-01T04:22:54.568Z,997.85
2017-05-01T04:23:55.178Z,997.88
2017-05-01T04:24:55.792Z,997.90
2017-05-01T04:25:56.403Z,998.00
2017-05-01T04:26:57.011Z,997.99
2017-05-01T04:27:57.617Z,997.99
2017-05-01T04:28:58.229Z,998.01
2017-05-01T04:29:58.841Z,998.03
2017-05-01T04:30:59.453Z,998.02
2017-05-01T04:32:00.066Z,998.01
2017-05-01T04:33:00.676Z,998.02
2017-05-01T04:34:01.275Z,998.04
2017-05-01T04:35:01.887Z,998.05
2017-05-01T04:36:02.491Z,998.05
2017-05-01T04:37:03.104Z,998.09
2017-05-01T04:38:03.713Z,998.07
2017-05-01T04:39:04.330Z,998.10
2017-05-01T04:40:04.966Z,998.13
2017-05-01T04:41:05.561Z,998.12
2017-05-01T04:42:06.174Z,998.14
2017-05-01T04:43:06.770Z,998.14
2017-05-01T04:44:07.386Z,998.15
2017-05-01T04:45:07.986Z,998.16
2017-05-01T04:46:08.586Z,998.20
2017-05-01T04:47:09.185Z,998.19
2017-05-01T04:48:09.787Z,998.22
2017-05-01T04:49:10.400Z,998.25
2017-05-01T04:50:11.000Z,998.24
2017-05-01T04:51:11.601Z,998.28
2017-05-01T04:52:12.200Z,998.32
2017-05-01T04:53:12.813Z,998.32
2017-05-01T04:54:13.416Z,998.30
2017-05-01T04:55:14.034Z,998.34
2017-05-01T04:56:14.636Z,998.37
2017-05-01T04:57:15.251Z,998.37
2017-05-01T04:58:15.856Z,998.43
2017-05-01T04:59:16.469Z,998.44
2017-05-01T05:00:17.087Z,998.50
2017-05-01T05:01:17.689Z,998.48
2017-05-01T05:02:18.302Z,998.42
2017-05-01T05:03:18.902Z,998.52
2017-05-01T05:04:19.566Z,998.55
2017-05-01T05:05:20.178Z,998.51
2017-05-01T05:06:20.775Z,998.57
2017-05-01T05:07:21.387Z,998.54
2017-05-01T05:08:22.003Z,998.60
2017-05-01T05:09:22.615Z,998.63
2017-05-01T05:10:23.232Z,998.61
2017-05-01T05:11:23.841Z,998.64
2017-05-01T05:12:24.454Z,998.63
2017-05-01T05:13:25.067Z,998.68
2017-05-01T05:14:25.731Z,998.68
2017-05-01T05:15:26.348Z,998.70
2017-05-01T05:16:26.962Z,998.73
2017-05-01T05:17:27.571Z,998.72
2017-05-01T05:18:28.183Z,998.74
2017-05-01T05:19:28.786Z,998.73
2017-05-01T05:20:29.390Z,998.74
2017-05-01T05:21:29.998Z,998.73
2017-05-01T05:22:30.603Z,998.77
2017-05-01T05:23:31.216Z,998.75
2017-05-01T05:24:31.828Z,998.74
2017-05-01T05:25:32.419Z,998.79
2017-05-01T05:26:33.024Z,998.73
2017-05-01T05:27:33.631Z,998.79
2017-05-01T05:28:34.243Z,998.75
2017-05-01T05:29:34.859Z,998.78
2017-05-01T05:30:35.468Z,998.77
2017-05-01T05:31:36.084Z,998.75
2017-05-01T05:32:36.703Z,998.80
2017-05-01T05:33:37.324Z,998.81
2017-05-01T05:34:37.924Z,998.82
2017-05-01T05:35:38.545Z,998.78
2017-05-01T05:36:39.150Z,998.79
2017-05-01T05:37:39.761Z,998.82
2017-05-01T05:38:40.378Z,998.83
2017-05-01T05:39:41.007Z,998.85
2017-05-01T05:40:41.592Z,998.89
2017-05-01T05:41:42.204Z,998.89
2017-05-01T05:42:42.823Z,998.88
2017-05-01T05:43:43.434Z,998.89
2017-05-01T05:44:44.052Z,998.90
2017-05-01T05:45:44.662Z,998.89
2017-05-01T05:46:45.275Z,998.93
2017-05-01T05:47:45.891Z,998.93
2017-05-01T05:48:46.527Z,998.94
2017-05-01T05:49:47.164Z,998.94
2017-05-01T05:50:47.777Z,998.96
2017-05-01T05:51:48.389Z,999.00
2017-05-01T05:52:48.998Z,999.02
2017-05-01T05:53:49.603Z,999.01
2017-05-01T05:54:50.206Z,999.01
2017-05-01T05:55:50.825Z,999.05
2017-05-01T05:56:51.440Z,999.02
2017-05-01T05:57:52.049Z,999.05
2017-05-01T05:58:52.648Z,999.05
2017-05-01T05:59:53.284Z,998.98
2017-05-01T06:00:53.865Z,999.01
2017-05-01T06:01:54.478Z,999.02
2017-05-01T06:02:55.089Z,998.99
2017-05-01T06:03:55.705Z,999.03
2017-05-01T06:04:56.319Z,999.00
2017-05-01T06:05:56.952Z,999.01
2017-05-01T06:06:57.568Z,999.06
2017-05-01T06:07:58.174Z,999.12
2017-05-01T06:08:58.786Z,999.11
2017-05-01T06:09:59.393Z,999.11
2017-05-01T06:10:59.995Z,999.12
2017-05-01T06:12:00.604Z,999.11
2017-05-01T06:13:01.216Z,999.09
2017-05-01T06:14:01.818Z,999.06
2017-05-01T06:15:02.418Z,999.12
2017-05-01T06:16:03.034Z,999.13
2017-05-01T06:17:03.655Z,999.15
2017-05-01T06:18:04.269Z,999.18
2017-05-01T06:19:04.882Z,999.20
2017-05-01T06:20:05.552Z,999.21
2017-05-01T06:21:06.186Z,999.26
2017-05-01T06:22:06.804Z,999.25
2017-05-01T06:23:07.444Z,999.25
2017-05-01T06:24:08.076Z,999.31
2017-05-01T06:25:08.746Z,999.30
2017-05-01T06:26:09.348Z,999.31
2017-05-01T06:27:09.962Z,999.35
2017-05-01T06:28:10.607Z,999.37
2017-05-01T06:29:11.235Z,999.37
2017-05-01T06:30:11.857Z,999.43
2017-05-01T06:31:12.464Z,999.46
2017-05-01T06:32:13.082Z,999.49
2017-05-01T06:33:13.699Z,999.52
2017-05-01T06:34:14.314Z,999.56
2017-05-01T06:35:15.172Z,999.52
2017-05-01T06:36:15.777Z,999.52
2017-05-01T06:37:16.384Z,999.51
2017-05-01T06:38:16.982Z,999.48
2017-05-01T06:39:17.631Z,999.53
2017-05-01T06:40:18.247Z,999.55
2017-05-01T06:41:18.862Z,999.53
2017-05-01T06:42:19.517Z,999.57
2017-05-01T06:43:20.139Z,999.61
2017-05-01T06:44:20.753Z,999.65
2017-05-01T06:45:21.412Z,999.69
2017-05-01T06:46:22.031Z,999.69
2017-05-01T06:47:22.643Z,999.71
2017-05-01T06:48:23.254Z,999.73
2017-05-01T06:49:23.878Z,999.75
2017-05-01T06:50:24.558Z,999.77
2017-05-01T06:51:25.169Z,999.77
2017-05-01T06:52:25.791Z,999.78
2017-05-01T06:53:26.420Z,999.78
2017-05-01T06:54:27.036Z,999.81
2017-05-01T06:55:27.642Z,999.84
2017-05-01T06:56:28.255Z,999.84
2017-05-01T06:57:28.892Z,999.87
2017-05-01T06:58:29.494Z,999.88
2017-05-01T06:59:30.101Z,999.89
2017-05-01T07:00:30.791Z,999.87
2017-05-01T07:01:31.380Z,999.89
2017-05-01T07:02:31.983Z,999.83
2017-05-01T07:03:32.648Z,999.89
2017-05-01T07:04:33.251Z,999.93
2017-05-01T07:05:33.865Z,999.94
2017-05-01T07:06:34.506Z,999.93
2017-05-01T07:07:35.371Z,999.93
2017-05-01T07:08:36.011Z,999.97
2017-05-01T07:09:36.627Z,999.97
2017-05-01T07:10:37.248Z,999.95
2017-05-01T07:11:37.876Z,999.96
2017-05-01T07:12:38.495Z,999.96
2017-05-01T07:13:39.123Z,999.98
2017-05-01T07:14:39.750Z,999.98
2017-05-01T07:15:40.376Z,999.99
2017-05-01T07:16:40.991Z,1000.04
2017-05-01T07:17:41.619Z,1000.01
2017-05-01T07:18:42.244Z,1000.05
2017-05-01T07:19:42.847Z,1000.06
2017-05-01T07:20:43.470Z,1000.05
2017-05-01T07:21:44.092Z,1000.07
2017-05-01T07:22:44.747Z,1000.06
2017-05-01T07:23:45.376Z,1000.09
2017-05-01T07:24:46.022Z,1000.12
2017-05-01T07:25:46.605Z,1000.11
2017-05-01T07:26:47.206Z,1000.15
2017-05-01T07:27:47.835Z,1000.13
2017-05-01T07:28:48.437Z,1000.15
2017-05-01T07:29:49.096Z,1000.16
2017-05-01T07:30:49.743Z,1000.18
2017-05-01T07:31:50.349Z,1000.15
2017-05-01T07:32:50.977Z,1000.20
2017-05-01T07:33:51.605Z,1000.16
2017-05-01T07:34:52.209Z,1000.08
2017-05-01T07:35:52.839Z,1000.09
2017-05-01T07:36:53.457Z,1000.11
2017-05-01T07:37:54.086Z,1000.13
2017-05-01T07:38:54.733Z,1000.13
2017-05-01T07:39:55.328Z,1000.13
2017-05-01T07:40:55.940Z,1000.11
2017-05-01T07:41:56.556Z,1000.17
2017-05-01T07:42:57.179Z,1000.18
2017-05-01T07:43:57.802Z,1000.21
2017-05-01T07:44:58.409Z,1000.22
2017-05-01T07:45:59.074Z,1000.25
2017-05-01T07:46:59.707Z,1000.25
2017-05-01T07:48:00.344Z,1000.24
2017-05-01T07:49:00.952Z,1000.28
2017-05-01T07:50:01.568Z,1000.28
2017-05-01T07:51:02.192Z,1000.31
2017-05-01T07:52:02.815Z,1000.31
2017-05-01T07:53:03.437Z,1000.32
2017-05-01T07:54:04.064Z,1000.30
2017-05-01T07:55:04.670Z,1000.31
2017-05-01T07:56:05.298Z,1000.32
2017-05-01T07:57:05.895Z,1000.36
2017-05-01T07:58:06.512Z,1000.36
2017-05-01T07:59:07.130Z,1000.36
2017-05-01T08:00:07.743Z,1000.36
2017-05-01T08:01:08.365Z,1000.32
2017-05-01T08:02:09.004Z,1000.36
2017-05-01T08:03:09.598Z,1000.34
2017-05-01T08:04:10.216Z,1000.36
2017-05-01T08:05:10.839Z,1000.38
2017-05-01T08:06:11.458Z,1000.40
2017-05-01T08:07:12.072Z,1000.41
2017-05-01T08:08:12.752Z,1000.38
2017-05-01T08:09:13.344Z,1000.40
2017-05-01T08:10:13.953Z,1000.40
2017-05-01T08:11:14.565Z,1000.41
2017-05-01T08:12:15.184Z,1000.50
2017-05-01T08:13:15.803Z,1000.51
2017-05-01T08:14:16.418Z,1000.51
2017-05-01T08:15:17.091Z,1000.53
2017-05-01T08:16:17.739Z,1000.56
2017-05-01T08:17:18.345Z,1000.57
2017-05-01T08:18:18.954Z,1000.61
2017-05-01T08:19:19.574Z,1000.62
2017-05-01T08:20:20.179Z,1000.60
2017-05-01T08:21:20.797Z,1000.61
2017-05-01T08:22:21.400Z,1000.64
2017-05-01T08:23:22.008Z,1000.67
2017-05-01T08:24:22.620Z,1000.69
2017-05-01T08:25:23.238Z,1000.70
2017-05-01T08:26:23.852Z,1000.71
2017-05-01T08:27:24.462Z,1000.68
2017-05-01T08:28:25.073Z,1000.69
2017-05-01T08:29:25.717Z,1000.76
2017-05-01T08:30:26.329Z,1000.74
2017-05-01T08:31:26.945Z,1000.74
2017-05-01T08:32:27.628Z,1000.75
2017-05-01T08:33:28.278Z,1000.76
2017-05-01T08:34:28.886Z,1000.76
2017-05-01T08:35:29.494Z,1000.79
2017-05-01T08:36:30.167Z,1000.79
2017-05-01T08:37:30.850Z,1000.81
2017-05-01T08:38:31.437Z,1000.80
2017-05-01T08:39:32.090Z,1000.80
2017-05-01T08:40:32.721Z,1000.78
2017-05-01T08:41:33.453Z,1000.83
2017-05-01T08:42:34.048Z,1000.82
2017-05-01T08:43:34.695Z,1000.82
2017-05-01T08:44:35.392Z,1000.85
2017-05-01T08:45:36.010Z,1000.86
2017-05-01T08:46:36.619Z,1000.90
2017-05-01T08:47:37.238Z,1000.93
2017-05-01T08:48:37.860Z,1000.96
2017-05-01T08:49:38.552Z,1000.96
2017-05-01T08:50:39.155Z,1000.98
2017-05-01T08:51:39.819Z,1001.03
2017-05-01T08:52:40.424Z,1001.05
2017-05-01T08:53:41.050Z,1001.06
2017-05-01T08:54:41.671Z,1001.07
2017-05-01T08:55:42.299Z,1001.11
2017-05-01T08:56:42.927Z,1001.08
2017-05-01T08:57:43.553Z,1001.13
2017-05-01T08:58:44.171Z,1001.10
2017-05-01T08:59:44.792Z,1001.10
2017-05-01T09:00:45.420Z,1001.13
2017-05-01T09:01:46.045Z,1001.14
2017-05-01T09:02:46.648Z,1001.17
2017-05-01T09:03:47.300Z,1001.16
2017-05-01T09:04:47.943Z,1001.19
2017-05-01T09:05:48.560Z,1001.19
2017-05-01T09:06:49.235Z,1001.18
2017-05-01T09:07:49.857Z,1001.20
2017-05-01T09:08:50.470Z,1001.23
2017-05-01T09:09:51.079Z,1001.21
2017-05-01T09:10:51.747Z,1001.22
2017-05-01T09:11:52.370Z,1001.27
2017-05-01T09:12:52.990Z,1001.30
2017-05-01T09:13:53.596Z,1001.29
2017-05-01T09:14:54.209Z,1001.32
2017-05-01T09:15:54.806Z,1001.30
2017-05-01T09:16:55.428Z,1001.33
2017-05-01T09:17:56.035Z,1001.35
2017-05-01T09:18:56.654Z,1001.36
2017-05-01T09:19:57.268Z,1001.35
2017-05-01T09:20:57.895Z,1001.34
2017-05-01T09:21:58.579Z,1001.38
2017-05-01T09:22:59.218Z,1001.32
2017-05-01T09:23:59.855Z,1001.33
2017-05-01T09:25:00.479Z,1001.35
2017-05-01T09:26:01.111Z,1001.36
2017-05-01T09:27:01.768Z,1001.38
2017-05-01T09:28:02.413Z,1001.41
2017-05-01T09:29:03.038Z,1001.41
2017-05-01T09:30:03.690Z,1001.44
2017-05-01T09:31:04.290Z,1001.44
2017-05-01T09:32:04.929Z,1001.48
2017-05-01T09:33:05.557Z,1001.42
2017-05-01T09:34:06.179Z,1001.44
2017-05-01T09:35:06.823Z,1001.44
2017-05-01T09:36:07.445Z,1001.44
2017-05-01T09:37:08.220Z,1001.44
2017-05-01T09:38:08.819Z,1001.46
2017-05-01T09:39:09.435Z,1001.48
2017-05-01T09:40:10.052Z,1001.49
2017-05-01T09:41:10.688Z,1001.54
2017-05-01T09:42:11.296Z,1001.53
2017-05-01T09:43:11.930Z,1001.52
2017-05-01T09:44:12.557Z,1001.50
2017-05-01T09:45:13.175Z,1001.48
2017-05-01T09:46:13.770Z,1001.52
2017-05-01T09:47:14.444Z,1001.56
2017-05-01T09:48:15.073Z,1001.55
2017-05-01T09:49:15.703Z,1001.56
2017-05-01T09:50:16.336Z,1001.58
2017-05-01T09:51:16.950Z,1001.56
2017-05-01T09:52:17.570Z,1001.56
2017-05-01T09:53:18.203Z,1001.55
2017-05-01T09:54:18.828Z,1001.58
2017-05-01T09:55:19.448Z,1001.60
2017-05-01T09:56:20.066Z,1001.62
2017-05-01T09:57:20.756Z,1001.64
2017-05-01T09:58:21.350Z,1001.67
2017-05-01T09:59:21.965Z,1001.65
2017-05-01T10:00:22.579Z,1001.70
2017-05-01T10:01:23.183Z,1001.68
2017-05-01T10:02:23.851Z,1001.74
2017-05-01T10:03:24.472Z,1001.68
2017-05-01T10:04:25.075Z,1001.73
2017-05-01T10:05:25.681Z,1001.70
2017-05-01T10:06:26.299Z,1001.71
2017-05-01T10:07:26.916Z,1001.75
2017-05-01T10:08:27.536Z,1001.74
2017-05-01T10:09:28.162Z,1001.75
2017-05-01T10:10:28.777Z,1001.77
2017-05-01T10:11:29.391Z,1001.76
2017-05-01T10:12:30.009Z,1001.73
2017-05-01T10:13:30.628Z,1001.76
2017-05-01T10:14:31.252Z,1001.77
2017-05-01T10:15:31.922Z,1001.76
2017-05-01T10:16:32.542Z,1001.79
2017-05-01T10:17:33.198Z,1001.78
2017-05-01T10:18:33.816Z,1001.77
2017-05-01T10:19:34.417Z,1001.76
2017-05-01T10:20:35.032Z,1001.77
2017-05-01T10:21:35.638Z,1001.79
2017-05-01T10:22:36.287Z,1001.80
2017-05-01T10:23:36.910Z,1001.78
2017-05-01T10:24:37.525Z,1001.79
2017-05-01T10:25:38.140Z,1001.82
2017-05-01T10:26:38.766Z,1001.82
2017-05-01T10:27:39.380Z,1001.83
2017-05-01T10:28:39.996Z,1001.83
2017-05-01T10:29:40.620Z,1001.81
2017-05-01T10:30:41.236Z,1001.84
2017-05-01T10:31:41.853Z,1001.86
2017-05-01T10:32:42.523Z,1001.86
2017-05-01T10:33:43.140Z,1001.84
2017-05-01T10:34:43.759Z,1001.82
2017-05-01T10:35:44.379Z,1001.87
2017-05-01T10:36:44.988Z,1001.86
2017-05-01T10:37:45.604Z,1001.86
2017-05-01T10:38:46.219Z,1001.87
2017-05-01T10:39:46.818Z,1001.86
2017-05-01T10:40:47.434Z,1001.85
2017-05-01T10:41:48.051Z,1001.88
2017-05-01T10:42:48.722Z,1001.89
2017-05-01T10:43:49.410Z,1001.89
2017-05-01T10:44:50.016Z,1001.90
2017-05-01T10:45:50.645Z,1001.90
2017-05-01T10:46:51.281Z,1001.88
2017-05-01T10:47:51.901Z,1001.87
2017-05-01T10:48:52.524Z,1001.90
2017-05-01T10:49:53.131Z,1001.86
2017-05-01T10:50:53.741Z,1001.84
2017-05-01T10:51:54.361Z,1001.85
2017-05-01T10:52:54.984Z,1001.86
2017-05-01T10:53:55.605Z,1001.88
2017-05-01T10:54:56.230Z,1001.90
2017-05-01T10:55:56.848Z,1001.89
2017-05-01T10:56:57.457Z,1001.90
2017-05-01T10:57:58.075Z,1001.92
2017-05-01T10:58:58.680Z,1001.91
2017-05-01T10:59:59.287Z,1001.95
2017-05-01T11:00:59.889Z,1001.96
2017-05-01T11:02:00.510Z,1001.97
2017-05-01T11:03:01.122Z,1001.95
2017-05-01T11:04:01.749Z,1001.98
2017-05-01T11:05:02.367Z,1001.96
2017-05-01T11:06:02.971Z,1001.98
2017-05-01T11:07:03.588Z,1001.99
2017-05-01T11:08:04.257Z,1002.01
2017-05-01T11:09:04.872Z,1002.00
2017-05-01T11:10:05.489Z,1002.03
2017-05-01T11:11:06.112Z,1002.02
2017-05-01T11:12:06.727Z,1002.02
2017-05-01T11:13:07.384Z,1002.01
2017-05-01T11:14:08.039Z,1002.06
2017-05-01T11:15:08.866Z,1002.07
2017-05-01T11:16:09.490Z,1002.02
2017-05-01T11:17:10.111Z,1002.05
2017-05-01T11:18:10.745Z,1002.03
2017-05-01T11:19:11.374Z,1002.06
2017-05-01T11:20:11.989Z,1002.12
2017-05-01T11:21:12.625Z,1002.10
2017-05-01T11:22:13.241Z,1002.14
2017-05-01T11:23:13.875Z,1002.10
2017-05-01T11:24:14.494Z,1002.13
2017-05-01T11:25:15.122Z,1002.14
2017-05-01T11:26:15.730Z,1002.12
2017-05-01T11:27:16.356Z,1002.11
2017-05-01T11:28:17.043Z,1002.10
2017-05-01T11:29:17.654Z,1002.13
2017-05-01T11:30:18.268Z,1002.13
2017-05-01T11:31:18.882Z,1002.13
2017-05-01T11:32:19.482Z,1002.15
2017-05-01T11:33:20.092Z,1002.18
2017-05-01T11:34:20.702Z,1002.16
2017-05-01T11:35:21.325Z,1002.16
2017-05-01T11:36:21.929Z,1002.17
2017-05-01T11:37:22.555Z,1002.17
2017-05-01T11:38:23.217Z,1002.12
2017-05-01T11:39:23.821Z,1002.18
2017-05-01T11:40:24.430Z,1002.13
2017-05-01T11:41:25.049Z,1002.17
2017-05-01T11:42:25.660Z,1002.17
2017-05-01T11:43:26.274Z,1002.19
2017-05-01T11:44:26.890Z,1002.19
2017-05-01T11:45:27.512Z,1002.18
2017-05-01T11:46:28.147Z,1002.18
2017-05-01T11:47:28.771Z,1002.22
2017-05-01T11:48:29.418Z,1002.21
2017-05-01T11:49:30.036Z,1002.20
2017-05-01T11:50:30.653Z,1002.24
2017-05-01T11:51:31.271Z,1002.28
2017-05-01T11:52:31.872Z,1002.28
2017-05-01T11:53:32.492Z,1002.30
2017-05-01T11:54:33.114Z,1002.32
2017-05-01T11:55:33.714Z,1002.37
2017-05-01T11:56:34.334Z,1002.36
2017-05-01T11:57:34.945Z,1002.35
2017-05-01T11:58:35.637Z,1002.36
2017-05-01T11:59:36.266Z,1002.36
2017-05-01T12:00:36.873Z,1002.37
2017-05-01T12:01:37.516Z,1002.42
2017-05-01T12:02:38.124Z,1002.41
2017-05-01T12:03:38.794Z,1002.39
2017-05-01T12:04:39.434Z,1002.42
2017-05-01T12:05:40.051Z,1002.39
2017-05-01T12:06:40.679Z,1002.47
2017-05-01T12:07:41.301Z,1002.43
2017-05-01T12:08:41.925Z,1002.47
2017-05-01T12:09:42.545Z,1002.46
2017-05-01T12:10:43.197Z,1002.44
2017-05-01T12:11:43.839Z,1002.47
2017-05-01T12:12:44.462Z,1002.50
2017-05-01T12:13:45.083Z,1002.44
2017-05-01T12:14:45.779Z,1002.48
2017-05-01T12:15:46.410Z,1002.47
2017-05-01T12:16:47.029Z,1002.51
2017-05-01T12:17:47.641Z,1002.50
2017-05-01T12:18:48.260Z,1002.52
2017-05-01T12:19:48.890Z,1002.51
2017-05-01T12:20:49.505Z,1002.57
2017-05-01T12:21:50.134Z,1002.56
2017-05-01T12:22:50.741Z,1002.55
2017-05-01T12:23:51.356Z,1002.58
2017-05-01T12:24:51.980Z,1002.60
2017-05-01T12:25:52.595Z,1002.59
2017-05-01T12:26:53.199Z,1002.59